Time;durP1;ratioP1;P1;durP2;ratioP2;P2;SDS_P1;SDS_P2;PMS_P1;PMS_P2;Temp;Humidity;BMP_temperature;BMP_pressure;BME280_temperature;BME280_humidity;BME280_pressure;Samples;Min_cycle;Max_cycle;Signal;HPM_P1;HPM_P2
2023/06/26 00:00:53;;;;;;;77.53;10.80;;;26.10;1.00;;;;;;5075277;28;20156;-79
2023/06/26 00:03:18;;;;;;;71.87;10.03;;;26.10;1.00;;;;;;5075223;28;20539;-79
2023/06/26 00:05:44;;;;;;;74.40;10.37;;;26.10;1.00;;;;;;5075318;28;20543;-79
2023/06/26 00:08:10;;;;;;;74.07;10.43;;;26.00;1.00;;;;;;5075198;28;20274;-77
2023/06/26 00:10:35;;;;;;;72.67;9.47;;;26.00;1.00;;;;;;5074976;28;20207;-79
2023/06/26 00:13:02;;;;;;;74.43;10.10;;;26.00;1.00;;;;;;5057310;28;20191;-80
2023/06/26 00:15:31;;;;;;;72.67;9.93;;;25.90;1.00;;;;;;5074823;28;20178;-78
2023/06/26 00:17:57;;;;;;;73.23;9.83;;;25.80;1.00;;;;;;5074267;28;20449;-78
2023/06/26 00:20:24;;;;;;;73.87;9.00;;;25.80;1.00;;;;;;5056717;28;20406;-77
2023/06/26 00:22:50;;;;;;;72.03;8.60;;;25.80;1.00;;;;;;5075084;28;20901;-77
2023/06/26 00:25:16;;;;;;;72.30;9.17;;;25.80;1.00;;;;;;5075158;28;20402;-77
2023/06/26 00:27:41;;;;;;;75.60;9.20;;;25.80;1.00;;;;;;5074799;28;20237;-78
2023/06/26 00:30:08;;;;;;;72.03;9.07;;;25.70;1.00;;;;;;5075091;28;20708;-78
2023/06/26 00:32:34;;;;;;;72.17;8.50;;;25.70;1.00;;;;;;5074814;28;20165;-78
2023/06/26 00:34:59;;;;;;;72.33;9.27;;;25.70;1.00;;;;;;5075047;28;20401;-77
2023/06/26 00:37:25;;;;;;;73.00;9.73;;;25.70;1.00;;;;;;5074670;28;20265;-77
2023/06/26 00:39:51;;;;;;;73.60;9.57;;;25.70;1.00;;;;;;5074931;28;20168;-78
2023/06/26 00:42:16;;;;;;;75.17;9.13;;;25.60;1.00;;;;;;5074758;28;20592;-78
2023/06/26 00:44:42;;;;;;;71.70;9.53;;;25.70;1.00;;;;;;5074594;28;20270;-77
2023/06/26 00:47:11;;;;;;;73.70;9.70;;;25.50;1.00;;;;;;5074265;28;20195;-77
2023/06/26 00:49:36;;;;;;;71.60;9.10;;;25.50;1.00;;;;;;5074826;28;20620;-77
2023/06/26 00:52:03;;;;;;;71.80;8.43;;;25.50;1.00;;;;;;5074447;28;20399;-78
2023/06/26 00:54:29;;;;;;;72.33;8.30;;;25.40;1.00;;;;;;5056383;28;20221;-77
2023/06/26 00:56:54;;;;;;;73.60;9.27;;;25.40;1.00;;;;;;5074529;28;20528;-77
2023/06/26 00:59:20;;;;;;;72.23;8.90;;;25.40;1.00;;;;;;5075087;28;20160;-78
2023/06/26 01:01:46;;;;;;;71.70;8.67;;;25.40;1.00;;;;;;5074382;28;20168;-78
2023/06/26 01:04:17;;;;;;;71.80;9.07;;;25.30;1.00;;;;;;5074422;28;20170;-77
2023/06/26 01:06:48;;;;;;;71.50;8.07;;;25.30;1.00;;;;;;5074713;28;20148;-78
2023/06/26 01:09:18;;;;;;;71.50;8.27;;;25.20;1.00;;;;;;5074897;28;20769;-77
2023/06/26 01:11:43;;;;;;;72.10;7.83;;;25.20;1.00;;;;;;5074774;28;20493;-77
2023/06/26 01:14:09;;;;;;;71.90;7.97;;;25.20;1.00;;;;;;5074366;28;20437;-77
2023/06/26 01:16:37;;;;;;;70.20;7.80;;;25.10;1.00;;;;;;5074521;28;20198;-77
2023/06/26 01:19:08;;;;;;;72.97;8.07;;;25.10;1.00;;;;;;5073794;28;20191;-77
2023/06/26 01:21:38;;;;;;;71.40;8.30;;;25.10;1.00;;;;;;5074280;28;20466;-77
2023/06/26 01:24:20;;;;;;;72.87;8.03;;;25.00;1.00;;;;;;5074268;28;20402;-77
2023/06/26 01:26:48;;;;;;;72.10;8.40;;;25.00;1.00;;;;;;5074496;28;20390;-80
2023/06/26 01:29:16;;;;;;;72.90;9.00;;;24.90;1.00;;;;;;5073959;28;20406;-79
2023/06/26 01:31:43;;;;;;;72.47;8.77;;;24.80;1.00;;;;;;5073922;28;20398;-78
2023/06/26 01:34:09;;;;;;;77.23;9.70;;;24.90;1.00;;;;;;5077827;28;20410;-78
2023/06/26 01:36:35;;;;;;;72.07;8.80;;;24.90;1.00;;;;;;5077920;28;20753;-77
2023/06/26 01:39:01;;;;;;;72.03;8.43;;;24.80;1.00;;;;;;5077573;28;20437;-78
2023/06/26 01:41:26;;;;;;;72.10;9.30;;;24.80;1.00;;;;;;5077769;28;20429;-79
2023/06/26 01:44:15;;;;;;;72.30;9.40;;;24.80;1.00;;;;;;5060296;28;20238;-77
2023/06/26 01:49:57;;;;;;;72.47;9.83;;;24.80;1.00;;;;;;5061152;28;20450;-82
2023/06/26 01:52:35;;;;;;;71.37;8.60;;;24.70;1.00;;;;;;5059894;28;20402;-82
2023/06/26 01:55:10;;;;;;;72.17;10.00;;;24.70;1.00;;;;;;5062562;28;20390;-82
2023/06/26 01:57:37;;;;;;;75.90;9.67;;;24.70;1.00;;;;;;5062592;28;20413;-82
2023/06/26 02:00:03;;;;;;;72.90;10.23;;;24.70;1.00;;;;;;5062117;28;20398;-82
2023/06/26 02:02:29;;;;;;;72.70;10.10;;;24.60;1.00;;;;;;5061065;28;21004;-82
2023/06/26 02:04:55;;;;;;;75.40;11.47;;;24.50;1.00;;;;;;5060653;28;20813;-82
2023/06/26 02:07:23;;;;;;;72.20;10.50;;;24.50;1.00;;;;;;5062369;28;20480;-82
2023/06/26 02:09:49;;;;;;;73.43;11.90;;;24.50;1.00;;;;;;5060936;28;20247;-82
2023/06/26 02:12:15;;;;;;;74.60;11.50;;;24.50;1.00;;;;;;5060662;28;20415;-82
2023/06/26 02:14:41;;;;;;;73.00;10.67;;;24.50;1.00;;;;;;5060262;28;20535;-82
2023/06/26 02:17:08;;;;;;;75.37;11.17;;;24.50;1.00;;;;;;5060519;28;20227;-82
2023/06/26 02:19:34;;;;;;;74.33;11.33;;;24.40;1.00;;;;;;5062223;28;20174;-82
2023/06/26 02:22:00;;;;;;;75.67;12.20;;;24.40;1.00;;;;;;5061510;28;20485;-82
2023/06/26 02:24:30;;;;;;;77.63;12.37;;;24.40;1.00;;;;;;5060546;28;20240;-82
2023/06/26 02:26:57;;;;;;;73.37;12.70;;;24.40;1.00;;;;;;5060401;28;20202;-82
2023/06/26 02:29:23;;;;;;;75.20;13.17;;;24.40;1.00;;;;;;5060035;28;20409;-82
2023/06/26 02:31:48;;;;;;;74.57;12.00;;;24.20;1.00;;;;;;5061558;28;20901;-82
2023/06/26 02:34:14;;;;;;;78.13;13.30;;;24.20;1.00;;;;;;5059864;28;20600;-82
2023/06/26 02:36:40;;;;;;;73.67;13.97;;;24.20;1.00;;;;;;5062350;28;20168;-82
2023/06/26 02:39:06;;;;;;;79.03;14.07;;;24.20;1.00;;;;;;5061714;28;20188;-82
2023/06/26 02:41:31;;;;;;;74.23;14.30;;;24.20;1.00;;;;;;5061315;28;20206;-82
2023/06/26 02:43:57;;;;;;;76.57;16.23;;;24.20;1.00;;;;;;5060900;28;20570;-82
2023/06/26 02:46:22;;;;;;;74.90;14.33;;;24.10;1.00;;;;;;5060841;28;20674;-82
2023/06/26 02:48:48;;;;;;;76.40;17.63;;;24.10;1.00;;;;;;5061766;28;20599;-82
2023/06/26 02:51:14;;;;;;;75.37;16.57;;;24.00;1.00;;;;;;5060301;28;20196;-82
2023/06/26 02:53:39;;;;;;;76.33;14.90;;;24.00;1.00;;;;;;5060243;28;20179;-82
2023/06/26 02:56:05;;;;;;;77.80;15.80;;;23.90;1.00;;;;;;5061589;28;20658;-82
2023/06/26 02:58:31;;;;;;;74.50;16.83;;;23.70;1.00;;;;;;5061561;28;20191;-82
2023/06/26 03:00:56;;;;;;;75.67;16.20;;;23.80;1.00;;;;;;5060289;28;20407;-82
2023/06/26 03:03:22;;;;;;;77.43;19.20;;;23.80;1.00;;;;;;5060597;28;20159;-82
2023/06/26 03:05:48;;;;;;;75.60;17.80;;;23.70;1.00;;;;;;5059626;28;20172;-82
2023/06/26 03:08:14;;;;;;;75.77;16.90;;;23.80;1.00;;;;;;5060087;28;20186;-82
2023/06/26 03:10:40;;;;;;;74.80;17.20;;;23.80;1.00;;;;;;5059508;28;20164;-82
2023/06/26 03:13:05;;;;;;;75.47;16.50;;;23.80;1.00;;;;;;5060892;28;20217;-82
2023/06/26 03:15:31;;;;;;;77.50;17.10;;;23.80;1.00;;;;;;5059122;28;20167;-82
2023/06/26 03:17:57;;;;;;;77.07;16.80;;;23.90;1.00;;;;;;5059022;28;20772;-82
2023/06/26 03:20:22;;;;;;;74.90;17.77;;;23.80;1.00;;;;;;5061849;28;20173;-82
2023/06/26 03:22:48;;;;;;;74.37;17.53;;;23.80;1.00;;;;;;5061337;28;20733;-82
2023/06/26 03:25:14;;;;;;;77.67;18.40;;;23.80;1.00;;;;;;5059318;28;20176;-82
2023/06/26 03:27:39;;;;;;;74.83;15.87;;;23.90;1.00;;;;;;5060641;28;20198;-82
2023/06/26 03:30:06;;;;;;;75.07;18.67;;;23.90;1.00;;;;;;5060477;28;20237;-82
2023/06/26 03:32:31;;;;;;;74.97;18.10;;;23.90;1.00;;;;;;5060898;28;20254;-82
2023/06/26 03:34:57;;;;;;;74.03;16.47;;;24.00;1.00;;;;;;5060705;28;20478;-82
2023/06/26 03:37:22;;;;;;;74.23;15.80;;;23.90;1.00;;;;;;5061541;28;20199;-82
2023/06/26 03:39:48;;;;;;;72.90;16.47;;;23.90;1.00;;;;;;5060644;28;20237;-82
2023/06/26 03:42:14;;;;;;;75.37;16.60;;;23.90;1.00;;;;;;5061693;28;20171;-82
2023/06/26 03:44:39;;;;;;;73.00;15.57;;;23.90;1.00;;;;;;5060977;28;20177;-82
2023/06/26 03:47:05;;;;;;;72.73;15.00;;;24.00;1.00;;;;;;5060317;28;20209;-82
2023/06/26 03:49:31;;;;;;;73.30;14.53;;;24.00;1.00;;;;;;5061041;28;20614;-82
2023/06/26 03:51:56;;;;;;;72.70;14.93;;;24.00;1.00;;;;;;5060994;28;20528;-82
2023/06/26 03:54:22;;;;;;;73.20;15.73;;;24.10;1.00;;;;;;5059706;28;20193;-82
2023/06/26 03:56:48;;;;;;;73.20;13.30;;;24.00;1.00;;;;;;5060463;28;20214;-82
2023/06/26 03:59:14;;;;;;;73.87;16.67;;;24.00;1.00;;;;;;5060657;28;20210;-82
2023/06/26 04:01:40;;;;;;;73.80;14.20;;;24.00;1.00;;;;;;5059664;28;20168;-82
2023/06/26 04:04:05;;;;;;;74.50;15.50;;;24.00;1.00;;;;;;5060459;28;20434;-82
2023/06/26 04:06:31;;;;;;;76.90;17.70;;;24.00;1.00;;;;;;5059528;28;20196;-82
2023/06/26 04:08:57;;;;;;;74.97;16.70;;;24.00;1.00;;;;;;5059859;28;20182;-82
2023/06/26 04:11:24;;;;;;;72.93;15.07;;;24.10;1.00;;;;;;5061592;28;20164;-82
2023/06/26 04:13:49;;;;;;;75.40;17.67;;;24.20;1.00;;;;;;5058882;28;20404;-82
2023/06/26 04:16:15;;;;;;;74.00;16.40;;;24.20;1.00;;;;;;5060801;28;20412;-82
2023/06/26 04:18:41;;;;;;;73.70;15.10;;;24.20;1.00;;;;;;5058958;28;20191;-82
2023/06/26 04:21:08;;;;;;;74.97;17.17;;;24.20;1.00;;;;;;5060693;28;20438;-81
2023/06/26 04:23:34;;;;;;;75.80;19.47;;;24.20;1.00;;;;;;5059330;28;20172;-82
2023/06/26 04:26:00;;;;;;;76.67;20.40;;;24.20;1.00;;;;;;5060499;28;20995;-81
2023/06/26 04:28:29;;;;;;;74.17;19.07;;;24.30;1.00;;;;;;5060753;28;20453;-81
2023/06/26 04:30:55;;;;;;;82.20;25.00;;;24.40;1.00;;;;;;5061088;28;20405;-81
2023/06/26 04:33:21;;;;;;;74.97;21.37;;;24.40;1.00;;;;;;5060840;28;20395;-82
2023/06/26 04:35:48;;;;;;;75.80;24.87;;;24.40;1.00;;;;;;5060778;28;20198;-82
2023/06/26 04:38:15;;;;;;;78.33;23.97;;;24.40;1.00;;;;;;5058674;28;20199;-82
2023/06/26 04:40:41;;;;;;;76.07;24.00;;;24.50;1.00;;;;;;5058394;28;20431;-82
2023/06/26 04:43:07;;;;;;;76.40;21.50;;;24.80;1.00;;;;;;5075211;28;20406;-82
2023/06/26 04:45:32;;;;;;;75.97;18.83;;;24.90;1.00;;;;;;5060403;28;20486;-82
2023/06/26 04:48:00;;;;;;;76.13;19.53;;;25.10;1.00;;;;;;5058665;28;20212;-82
2023/06/26 04:50:28;;;;;;;75.50;18.90;;;25.20;1.00;;;;;;5058858;28;20164;-81
2023/06/26 04:52:55;;;;;;;76.07;21.93;;;25.20;1.00;;;;;;5060643;28;20413;-82
2023/06/26 04:55:21;;;;;;;75.97;18.57;;;25.10;1.00;;;;;;5060329;28;20403;-82
2023/06/26 04:57:47;;;;;;;73.90;16.37;;;25.10;1.00;;;;;;5060434;28;20515;-82
2023/06/26 05:00:15;;;;;;;76.93;18.23;;;25.20;1.00;;;;;;5059526;28;20446;-82
2023/06/26 05:02:40;;;;;;;73.50;17.40;;;25.00;1.00;;;;;;5059650;28;20410;-82
2023/06/26 05:05:06;;;;;;;76.43;16.43;;;25.10;1.00;;;;;;5075124;28;20407;-81
2023/06/26 05:07:32;;;;;;;74.40;15.83;;;25.10;1.00;;;;;;5062840;28;20675;-82
2023/06/26 05:09:58;;;;;;;73.07;15.50;;;25.00;1.00;;;;;;5064659;28;20395;-82
2023/06/26 05:12:23;;;;;;;73.93;15.13;;;25.00;1.00;;;;;;5063103;28;20168;-82
2023/06/26 05:14:49;;;;;;;73.17;13.70;;;25.00;1.00;;;;;;5064251;28;20160;-82
2023/06/26 05:17:15;;;;;;;73.00;13.57;;;24.90;1.00;;;;;;5064001;28;20224;-82
2023/06/26 05:19:40;;;;;;;71.47;13.77;;;24.90;1.00;;;;;;5062463;28;20266;-82
2023/06/26 05:22:07;;;;;;;74.17;12.90;;;24.70;1.00;;;;;;5064177;28;20164;-81
2023/06/26 05:24:37;;;;;;;74.17;13.10;;;24.70;1.00;;;;;;5064414;28;20164;-81
2023/06/26 05:27:03;;;;;;;71.40;12.83;;;24.60;1.00;;;;;;5063822;28;20462;-81
2023/06/26 05:29:31;;;;;;;77.87;13.10;;;24.40;1.00;;;;;;5061809;28;20405;-81
2023/06/26 05:31:57;;;;;;;73.37;12.67;;;24.40;1.00;;;;;;5063302;28;20402;-81
2023/06/26 05:34:24;;;;;;;73.07;12.87;;;24.40;1.00;;;;;;5063669;28;20434;-81
2023/06/26 05:37:00;;;;;;;76.17;14.30;;;24.50;1.00;;;;;;5078212;28;20468;-81
2023/06/26 05:39:26;;;;;;;73.00;11.93;;;24.40;1.00;;;;;;5062861;28;20489;-81
2023/06/26 05:41:52;;;;;;;73.17;10.97;;;24.30;1.00;;;;;;5063008;28;20819;-81
2023/06/26 05:44:18;;;;;;;75.17;11.90;;;24.20;1.00;;;;;;5061246;28;20445;-81
2023/06/26 05:46:46;;;;;;;72.20;10.73;;;24.00;1.00;;;;;;5063389;28;20325;-80
2023/06/26 05:49:12;;;;;;;74.77;15.10;;;23.90;1.00;;;;;;5066227;28;20183;-80
2023/06/26 05:51:38;;;;;;;75.93;13.63;;;23.80;1.00;;;;;;5065841;28;20425;-80
2023/06/26 05:54:04;;;;;;;74.97;15.30;;;23.70;1.00;;;;;;5065343;28;20953;-80
2023/06/26 05:56:30;;;;;;;74.90;18.80;;;23.70;1.00;;;;;;5066594;28;20400;-80
2023/06/26 05:58:57;;;;;;;74.37;18.20;;;23.80;1.00;;;;;;5065129;28;20427;-81
2023/06/26 06:01:24;;;;;;;73.20;18.37;;;23.80;1.00;;;;;;5064196;28;20410;-81
2023/06/26 06:03:50;;;;;;;73.07;17.30;;;23.90;1.00;;;;;;5066092;28;20405;-81
2023/06/26 06:06:15;;;;;;;73.83;17.30;;;23.90;1.00;;;;;;5066183;28;20457;-81
2023/06/26 06:08:41;;;;;;;75.30;20.57;;;23.80;1.00;;;;;;5065345;28;20286;-80
2023/06/26 06:11:09;;;;;;;79.73;23.80;;;23.70;1.00;;;;;;5066624;28;20439;-80
2023/06/26 06:13:34;;;;;;;78.60;21.77;;;23.50;1.00;;;;;;5067035;28;20439;-81
2023/06/26 06:16:00;;;;;;;77.07;26.30;;;23.50;1.00;;;;;;5068100;28;20406;-81
2023/06/26 06:18:26;;;;;;;82.30;25.57;;;23.30;1.00;;;;;;5064826;28;20178;-81
2023/06/26 06:20:51;;;;;;;75.70;28.10;;;23.40;1.00;;;;;;5066976;28;20665;-82
2023/06/26 06:23:17;;;;;;;80.70;28.10;;;23.50;1.00;;;;;;5067173;28;20154;-81
2023/06/26 06:25:43;;;;;;;79.50;31.37;;;23.60;1.00;;;;;;5069211;28;20251;-81
2023/06/26 06:28:18;;;;;;;79.80;28.77;;;23.60;1.00;;;;;;5067703;28;20198;-81
2023/06/26 06:30:43;;;;;;;80.03;28.80;;;23.50;1.00;;;;;;5066820;28;20163;-80
2023/06/26 06:33:09;;;;;;;77.17;27.13;;;23.40;1.00;;;;;;5063607;28;20400;-81
2023/06/26 06:35:34;;;;;;;80.00;29.67;;;23.40;1.00;;;;;;5060966;28;20171;-81
2023/06/26 06:38:00;;;;;;;75.50;25.90;;;23.40;1.00;;;;;;5060535;28;20185;-81
2023/06/26 06:40:26;;;;;;;78.60;24.53;;;23.40;1.00;;;;;;5061523;28;20168;-81
2023/06/26 06:42:52;;;;;;;79.27;26.73;;;23.30;1.00;;;;;;5059991;28;20166;-82
2023/06/26 06:45:18;;;;;;;77.87;26.07;;;23.30;1.00;;;;;;5061166;28;20161;-81
2023/06/26 06:47:43;;;;;;;79.33;28.97;;;23.20;1.00;;;;;;5061508;28;20458;-81
2023/06/26 06:50:09;;;;;;;76.27;24.53;;;23.40;1.00;;;;;;5061771;28;20524;-81
2023/06/26 06:52:40;;;;;;;77.67;21.77;;;23.30;1.00;;;;;;5060952;28;20168;-81
2023/06/26 06:55:08;;;;;;;76.27;19.00;;;23.10;1.00;;;;;;5062068;28;20619;-81
2023/06/26 06:57:37;;;;;;;75.47;20.70;;;23.20;1.00;;;;;;5060467;28;20437;-81
2023/06/26 07:00:08;;;;;;;75.00;20.47;;;23.10;1.00;;;;;;5060950;28;20942;-81
2023/06/26 07:02:43;;;;;;;77.20;20.23;;;23.10;1.00;;;;;;5060946;28;20408;-81
2023/06/26 07:05:09;;;;;;;76.40;17.53;;;23.10;1.00;;;;;;5059865;28;20414;-81
2023/06/26 07:07:36;;;;;;;75.13;14.03;;;23.10;1.00;;;;;;5061040;28;20506;-81
2023/06/26 07:10:05;;;;;;;73.40;13.17;;;23.00;1.00;;;;;;5060886;28;20430;-81
2023/06/26 07:12:31;;;;;;;73.20;14.10;;;23.00;1.00;;;;;;5061875;28;20404;-82
2023/06/26 07:14:57;;;;;;;76.63;10.50;;;23.00;1.00;;;;;;5061932;28;20812;-82
2023/06/26 07:17:23;;;;;;;72.67;10.80;;;23.00;1.00;;;;;;5059269;28;20512;-82
2023/06/26 07:19:50;;;;;;;72.30;12.33;;;23.10;1.00;;;;;;5059879;28;20442;-81
2023/06/26 07:22:16;;;;;;;73.87;11.37;;;23.10;1.00;;;;;;5065829;28;20916;-81
2023/06/26 07:24:42;;;;;;;71.27;11.90;;;23.00;1.00;;;;;;5069604;28;20431;-81
2023/06/26 07:27:07;;;;;;;71.80;12.17;;;23.20;1.00;;;;;;5068183;28;20974;-81
2023/06/26 07:29:33;;;;;;;75.40;11.37;;;23.40;1.00;;;;;;5067128;28;20396;-81
2023/06/26 07:31:59;;;;;;;75.77;13.27;;;23.40;1.00;;;;;;5066048;28;20243;-81
2023/06/26 07:34:25;;;;;;;76.60;12.70;;;23.50;1.00;;;;;;5068848;28;20165;-81
2023/06/26 07:36:53;;;;;;;78.90;11.70;;;23.50;1.00;;;;;;5066970;28;20165;-81
2023/06/26 07:39:19;;;;;;;75.37;12.97;;;23.50;1.00;;;;;;5067561;28;20693;-82
2023/06/26 07:41:45;;;;;;;74.83;11.70;;;23.70;1.00;;;;;;5083928;28;20415;-81
2023/06/26 07:44:11;;;;;;;72.03;13.37;;;23.70;1.00;;;;;;5068870;28;20170;-81
2023/06/26 07:46:36;;;;;;;79.60;15.07;;;23.70;1.00;;;;;;5067719;28;20224;-81
2023/06/26 07:49:02;;;;;;;76.20;12.67;;;23.70;1.00;;;;;;5158041;22;20229;-83
2023/06/26 07:51:34;;;;;;;73.23;10.47;;;23.70;1.00;;;;;;5086108;28;20164;-83
2023/06/26 07:54:03;;;;;;;74.90;11.23;;;23.50;1.00;;;;;;5085959;28;20177;-84
2023/06/26 07:56:29;;;;;;;76.80;9.77;;;23.60;1.00;;;;;;5086913;28;20394;-83
2023/06/26 07:58:57;;;;;;;77.53;16.23;;;23.70;1.00;;;;;;5087347;28;20416;-82
2023/06/26 08:01:26;;;;;;;74.67;14.07;;;23.80;1.00;;;;;;5088294;28;20156;-84
2023/06/26 08:03:58;;;;;;;73.60;14.40;;;23.90;1.00;;;;;;5085992;28;20407;-85
2023/06/26 08:06:23;;;;;;;73.20;11.80;;;23.70;1.00;;;;;;5069100;28;20448;-84
2023/06/26 08:08:59;;;;;;;75.70;14.63;;;23.50;1.00;;;;;;5087866;28;20451;-84
2023/06/26 08:11:38;;;;;;;77.50;15.97;;;23.50;1.00;;;;;;5084036;28;20149;-83
2023/06/26 08:14:04;;;;;;;82.70;12.17;;;23.50;1.00;;;;;;5078573;28;20386;-83
2023/06/26 08:16:29;;;;;;;70.37;10.63;;;23.40;1.00;;;;;;5079361;28;20406;-83
2023/06/26 08:18:55;;;;;;;72.70;10.83;;;23.40;1.00;;;;;;5078792;28;20220;-82
2023/06/26 08:21:21;;;;;;;75.20;14.80;;;23.50;1.00;;;;;;5060963;28;20168;-83
2023/06/26 08:23:49;;;;;;;75.30;12.60;;;23.70;1.00;;;;;;5061008;28;20255;-82
2023/06/26 08:26:18;;;;;;;76.10;16.80;;;23.70;1.00;;;;;;5078899;28;20168;-82
2023/06/26 08:28:44;;;;;;;71.60;11.87;;;23.80;1.00;;;;;;5078608;28;20790;-83
2023/06/26 08:31:09;;;;;;;78.00;17.97;;;23.90;1.00;;;;;;5077757;28;20414;-82
2023/06/26 08:33:35;;;;;;;73.07;16.93;;;24.10;1.00;;;;;;5077707;28;20198;-83
2023/06/26 08:36:01;;;;;;;77.33;20.43;;;24.20;1.00;;;;;;5078784;28;20538;-82
2023/06/26 08:38:27;;;;;;;77.40;22.53;;;24.30;1.00;;;;;;5060287;28;20184;-83
2023/06/26 08:40:52;;;;;;;76.57;20.37;;;24.30;1.00;;;;;;5060765;28;20409;-83
2023/06/26 08:43:19;;;;;;;77.60;22.37;;;24.30;1.00;;;;;;5079226;28;20211;-83
2023/06/26 08:45:46;;;;;;;77.63;29.87;;;24.30;1.00;;;;;;5062145;28;20165;-83
2023/06/26 08:48:12;;;;;;;77.80;28.67;;;24.30;1.00;;;;;;5062512;28;20465;-83
2023/06/26 08:50:39;;;;;;;77.63;23.97;;;24.40;1.00;;;;;;5079956;28;20391;-83
2023/06/26 08:53:12;;;;;;;82.20;29.73;;;24.60;1.00;;;;;;5079655;28;20455;-83
2023/06/26 08:55:42;;;;;;;80.07;32.67;;;24.80;1.00;;;;;;5063463;28;20399;-84
2023/06/26 08:58:07;;;;;;;86.87;35.80;;;24.80;1.00;;;;;;5088249;28;20425;-84
2023/06/26 09:00:34;;;;;;;79.37;35.70;;;24.80;1.00;;;;;;5088968;28;20511;-84
2023/06/26 09:03:03;;;;;;;81.90;40.27;;;24.90;1.00;;;;;;5090093;28;20223;-84
2023/06/26 09:05:32;;;;;;;82.87;39.87;;;25.00;1.00;;;;;;5090575;28;20486;-84
2023/06/26 09:07:58;;;;;;;80.93;37.37;;;25.10;1.00;;;;;;5089969;28;20537;-84
2023/06/26 09:10:24;;;;;;;79.27;35.23;;;25.20;1.00;;;;;;5088966;28;20436;-84
2023/06/26 09:12:50;;;;;;;81.67;37.33;;;25.10;1.00;;;;;;5088375;28;20754;-83
2023/06/26 09:15:19;;;;;;;82.97;39.83;;;24.90;1.00;;;;;;5088791;28;20419;-84
2023/06/26 09:17:46;;;;;;;89.00;34.27;;;25.00;1.00;;;;;;5088183;28;20480;-84
2023/06/26 09:20:14;;;;;;;80.50;36.13;;;25.00;1.00;;;;;;5066631;28;20410;-83
2023/06/26 09:22:41;;;;;;;83.77;39.33;;;25.00;1.00;;;;;;5085080;28;20417;-83
2023/06/26 09:25:08;;;;;;;80.67;30.33;;;25.00;1.00;;;;;;5083090;28;20496;-83
2023/06/26 09:27:35;;;;;;;79.60;24.70;;;24.80;1.00;;;;;;5080537;28;20535;-82
2023/06/26 09:30:03;;;;;;;79.50;29.00;;;24.80;1.00;;;;;;5079876;28;20416;-82
2023/06/26 09:32:29;;;;;;;74.90;14.60;;;24.80;1.00;;;;;;5087898;28;20406;-83
2023/06/26 09:35:00;;;;;;;73.30;11.67;;;25.00;1.00;;;;;;5081600;28;20458;-83
2023/06/26 09:37:26;;;;;;;77.60;15.70;;;25.10;1.00;;;;;;5083996;28;20245;-82
2023/06/26 09:39:52;;;;;;;76.07;11.90;;;25.00;1.00;;;;;;5079833;28;20476;-83
2023/06/26 09:42:19;;;;;;;78.10;22.10;;;24.90;1.00;;;;;;5080147;28;20449;-83
2023/06/26 09:44:46;;;;;;;74.53;11.07;;;25.00;1.00;;;;;;5079401;28;20172;-83
2023/06/26 09:47:11;;;;;;;72.80;9.17;;;25.10;1.00;;;;;;5060335;28;20884;-83
2023/06/26 09:49:41;;;;;;;71.70;7.70;;;25.00;1.00;;;;;;5059824;28;20512;-82
2023/06/26 09:52:07;;;;;;;69.47;8.73;;;24.90;1.00;;;;;;5079192;28;20159;-83
2023/06/26 09:54:33;;;;;;;77.57;9.13;;;25.00;1.00;;;;;;5082947;28;20402;-84
2023/06/26 09:57:13;;;;;;;71.80;12.40;;;25.00;1.00;;;;;;5065282;28;20263;-83
2023/06/26 09:59:40;;;;;;;72.50;10.27;;;24.80;1.00;;;;;;5084018;28;20198;-83
2023/06/26 10:02:06;;;;;;;76.70;15.37;;;25.00;1.00;;;;;;5083446;28;20900;-84
2023/06/26 10:04:33;;;;;;;69.37;9.67;;;25.10;1.00;;;;;;5083568;28;20405;-83
2023/06/26 10:07:02;;;;;;;73.37;10.70;;;25.50;1.00;;;;;;5082815;28;20665;-83
2023/06/26 10:09:29;;;;;;;71.03;8.37;;;25.60;1.00;;;;;;5082957;28;20403;-84
2023/06/26 10:12:07;;;;;;;70.33;8.00;;;25.30;1.00;;;;;;5082573;28;20982;-83
2023/06/26 10:14:38;;;;;;;70.00;7.00;;;25.10;1.00;;;;;;5066057;28;20407;-83
2023/06/26 10:17:08;;;;;;;72.70;9.40;;;25.30;1.00;;;;;;5083264;28;20437;-83
2023/06/26 10:19:37;;;;;;;73.23;9.00;;;25.50;1.00;;;;;;5082761;28;20390;-84
2023/06/26 10:22:04;;;;;;;72.87;8.20;;;25.50;1.00;;;;;;5082656;28;20417;-84
2023/06/26 10:24:33;;;;;;;74.10;7.23;;;25.40;1.00;;;;;;5082635;28;20825;-84
2023/06/26 10:27:08;;;;;;;73.53;8.97;;;25.20;1.00;;;;;;5080242;28;20472;-81
2023/06/26 10:29:36;;;;;;;71.07;8.80;;;25.10;1.00;;;;;;5086650;28;20389;-83
2023/06/26 10:32:04;;;;;;;73.63;10.63;;;25.30;1.00;;;;;;5087960;28;20413;-82
2023/06/26 10:34:30;;;;;;;75.73;9.43;;;25.70;1.00;;;;;;5061833;28;20402;-83
2023/06/26 10:37:00;;;;;;;72.17;7.73;;;26.20;1.00;;;;;;5086015;28;20410;-84
2023/06/26 10:39:26;;;;;;;74.70;7.17;;;26.30;1.00;;;;;;5091407;28;20249;-83
2023/06/26 10:41:55;;;;;;;87.87;7.90;;;26.40;1.00;;;;;;5073323;28;20419;-84
2023/06/26 10:44:21;;;;;;;72.00;7.70;;;26.40;1.00;;;;;;5072923;28;20505;-83
2023/06/26 10:46:58;;;;;;;71.40;7.33;;;26.50;1.00;;;;;;5088795;28;20449;-83
2023/06/26 10:51:53;;;;;;;73.37;7.50;;;26.10;1.00;;;;;;5029655;28;20457;-84
2023/06/26 10:54:20;;;;;;;71.87;7.87;;;25.70;1.00;;;;;;5013653;28;20533;-84
2023/06/26 10:56:47;;;;;;;74.43;8.47;;;25.60;1.00;;;;;;5030853;28;20764;-84
2023/06/26 10:59:21;;;;;;;72.00;7.50;;;25.60;1.00;;;;;;5013433;28;20408;-83
2023/06/26 11:01:55;;;;;;;71.40;7.63;;;25.50;1.00;;;;;;5032152;28;20378;-83
2023/06/26 11:04:40;;;;;;;71.90;8.27;;;25.50;1.00;;;;;;5032833;28;20396;-84
2023/06/26 11:07:24;;;;;;;71.33;7.13;;;25.90;1.00;;;;;;5031991;28;20463;-84
2023/06/26 11:10:09;;;;;;;74.43;6.97;;;25.80;1.00;;;;;;5032295;28;20916;-84
2023/06/26 11:12:41;;;;;;;70.47;7.07;;;25.80;1.00;;;;;;5031323;28;20373;-83
2023/06/26 11:15:11;;;;;;;70.97;6.97;;;25.80;1.00;;;;;;5021797;28;20405;-84
2023/06/26 11:17:37;;;;;;;71.00;8.17;;;25.60;1.00;;;;;;5020780;28;20428;-84
2023/06/26 11:20:07;;;;;;;73.00;6.03;;;25.70;1.00;;;;;;5021738;28;20409;-84
2023/06/26 11:22:35;;;;;;;73.70;5.47;;;26.00;1.00;;;;;;5021282;28;20385;-84
2023/06/26 11:25:01;;;;;;;69.70;6.70;;;26.40;1.00;;;;;;5021105;28;20401;-83
2023/06/26 11:27:38;;;;;;;72.37;7.43;;;26.80;1.00;;;;;;5020705;28;20455;-84
2023/06/26 11:30:05;;;;;;;74.70;9.67;;;27.20;1.00;;;;;;5020712;28;20389;-83
2023/06/26 11:32:32;;;;;;;75.10;11.83;;;27.40;1.00;;;;;;5019996;28;20401;-83
2023/06/26 11:34:59;;;;;;;76.70;9.33;;;27.40;1.00;;;;;;5018033;28;20472;-82
2023/06/26 11:37:25;;;;;;;73.30;10.50;;;27.30;1.00;;;;;;5002343;28;20447;-82
2023/06/26 11:39:53;;;;;;;73.20;8.43;;;27.30;1.00;;;;;;5018286;28;20429;-82
2023/06/26 11:42:20;;;;;;;75.67;11.20;;;27.10;1.00;;;;;;5017126;28;20484;-82
2023/06/26 11:44:50;;;;;;;75.20;11.70;;;27.30;1.00;;;;;;5017935;28;20453;-82
2023/06/26 11:47:17;;;;;;;74.07;11.10;;;27.60;1.00;;;;;;5017944;28;20460;-82
2023/06/26 11:49:45;;;;;;;72.30;11.27;;;27.50;1.00;;;;;;5019275;28;20416;-82
2023/06/26 11:52:10;;;;;;;73.73;10.40;;;27.20;1.00;;;;;;5017162;28;20456;-82
2023/06/26 11:54:36;;;;;;;80.00;11.00;;;26.80;1.00;;;;;;5018622;28;20451;-83
2023/06/26 11:57:02;;;;;;;72.07;10.60;;;26.60;1.00;;;;;;5018466;28;20589;-82
2023/06/26 11:59:39;;;;;;;70.10;9.00;;;26.30;1.00;;;;;;5021349;28;20185;-82
2023/06/26 12:02:10;;;;;;;72.30;9.30;;;26.10;1.00;;;;;;5025268;28;20416;-82
2023/06/26 12:04:38;;;;;;;71.40;9.40;;;26.30;1.00;;;;;;5023334;28;20412;-82
2023/06/26 12:07:09;;;;;;;72.87;10.93;;;26.60;1.00;;;;;;5025181;28;20456;-82
2023/06/26 12:09:46;;;;;;;75.13;8.83;;;27.20;1.00;;;;;;5021354;28;20389;-83
2023/06/26 12:12:16;;;;;;;69.20;7.00;;;27.40;1.00;;;;;;5023929;28;20404;-83
2023/06/26 12:14:42;;;;;;;72.17;7.73;;;27.50;1.00;;;;;;5022371;28;20531;-83
2023/06/26 12:17:13;;;;;;;73.13;7.50;;;27.30;1.00;;;;;;5024726;28;20824;-83
2023/06/26 12:19:43;;;;;;;72.67;5.77;;;27.20;1.00;;;;;;5025558;28;20181;-83
2023/06/26 12:22:10;;;;;;;70.93;6.87;;;27.20;1.00;;;;;;5026394;28;20397;-83
2023/06/26 12:24:38;;;;;;;70.17;6.20;;;27.00;1.00;;;;;;5025854;28;20403;-84
2023/06/26 12:27:09;;;;;;;70.67;5.70;;;26.70;1.00;;;;;;5024948;28;20449;-82
2023/06/26 12:29:35;;;;;;;68.80;5.40;;;26.70;1.00;;;;;;5023268;28;20382;-84
2023/06/26 12:32:02;;;;;;;70.80;7.00;;;26.80;1.00;;;;;;5012227;28;20416;-83
2023/06/26 12:34:38;;;;;;;69.53;5.90;;;27.00;1.00;;;;;;5027957;28;20401;-84
2023/06/26 12:37:11;;;;;;;70.27;6.10;;;27.10;1.00;;;;;;5030446;28;20425;-84
2023/06/26 12:39:47;;;;;;;71.83;6.90;;;27.00;1.00;;;;;;5030994;28;20488;-84
2023/06/26 12:42:27;;;;;;;72.10;6.50;;;27.10;1.00;;;;;;5029098;28;20397;-84
2023/06/26 12:44:56;;;;;;;76.13;7.10;;;27.00;1.00;;;;;;5022428;28;20817;-83
2023/06/26 12:47:27;;;;;;;69.17;6.50;;;26.80;1.00;;;;;;5018694;28;20452;-83